Time;durP1;ratioP1;P1;durP2;ratioP2;P2;SDS_P1;SDS_P2;PMS_P1;PMS_P2;Temp;Humidity;BMP_temperature;BMP_pressure;BME280_temperature;BME280_humidity;BME280_pressure;Samples;Min_cycle;Max_cycle;Signal;HPM_P1;HPM_P2
2022/11/05 00:10:19;;;;;;;1.05;0.65;;;;;;;4.31;96.08;101131.00;10206407;29;20063;-84
2022/11/05 00:20:41;;;;;;;2.53;1.50;;;;;;;4.15;96.24;101133.66;10224462;29;20095;-84
2022/11/05 00:25:52;;;;;;;0.55;0.55;;;;;;;4.06;96.10;101136.69;10207042;29;20059;-84
2022/11/05 00:30:59;;;;;;;1.23;0.75;;;;;;;3.93;96.19;101140.38;10207178;29;20049;-84
2022/11/05 00:36:02;;;;;;;1.52;0.88;;;;;;;3.83;95.86;101145.94;10224957;29;20047;-86
2022/11/05 00:41:03;;;;;;;2.67;0.68;;;;;;;3.75;95.90;101152.41;10191539;29;20048;-85
2022/11/05 00:46:05;;;;;;;2.38;0.90;;;;;;;-147.53;100.00;57128.34;10206953;29;20049;-84
2022/11/05 00:51:07;;;;;;;0.57;0.50;;;;;;;-147.53;100.00;57128.34;10207457;29;20055;-85
2022/11/05 00:56:08;;;;;;;0.50;0.50;;;;;;;-147.53;100.00;57128.34;10206765;29;20056;-84
2022/11/05 01:01:10;;;;;;;2.22;1.10;;;;;;;-147.53;100.00;57128.34;10205382;29;20073;-84
2022/11/05 01:06:14;;;;;;;1.23;0.57;;;;;;;-147.53;95.81;57128.34;10212404;29;20047;-82
2022/11/05 01:11:35;;;;;;;0.40;0.40;;;;;;;3.93;95.88;101168.00;10198150;29;20055;-84
2022/11/05 01:16:38;;;;;;;1.15;0.95;;;;;;;4.04;96.09;101166.84;10203775;29;20043;-84
2022/11/05 01:21:40;;;;;;;0.47;0.32;;;;;;;4.12;96.01;101175.00;10204262;28;20446;-84
2022/11/05 01:26:41;;;;;;;0.80;0.52;;;;;;;4.04;96.09;101178.09;10170807;29;20095;-84
2022/11/05 01:31:43;;;;;;;0.15;0.15;;;;;;;4.00;96.08;101185.63;10186394;28;20091;-84
2022/11/05 01:36:44;;;;;;;0.30;0.30;;;;;;;3.91;96.26;101180.88;10186366;29;20052;-84
2022/11/05 01:41:46;;;;;;;0.25;0.25;;;;;;;3.83;96.13;101179.63;10186933;29;20055;-84
2022/11/05 01:46:47;;;;;;;0.88;0.60;;;;;;;3.69;96.63;101174.63;10185711;29;20043;-85
2022/11/05 01:51:50;;;;;;;0.43;0.43;;;;;;;3.55;96.36;101183.38;10178388;29;20051;-84
2022/11/05 01:56:57;;;;;;;0.40;0.32;;;;;;;3.51;96.50;101173.66;10185677;29;20044;-84
2022/11/05 02:02:00;;;;;;;0.98;0.65;;;;;;;3.47;96.34;101175.19;10203116;29;20563;-85
2022/11/05 02:07:04;;;;;;;0.40;0.30;;;;;;;3.35;96.50;101178.03;10184227;29;20486;-84
2022/11/05 02:12:08;;;;;;;0.47;0.43;;;;;;;3.28;96.45;101175.06;10203154;29;20118;-85
2022/11/05 02:17:18;;;;;;;0.52;0.52;;;;;;;3.33;96.36;101179.66;10189026;29;20048;-85
2022/11/05 02:22:35;;;;;;;0.57;0.38;;;;;;;3.31;96.53;101181.25;10194378;29;20051;-84
2022/11/05 02:27:58;;;;;;;0.20;0.20;;;;;;;3.33;96.55;101182.25;10209483;29;20118;-84
2022/11/05 02:33:38;;;;;;;0.30;0.30;;;;;;;3.46;96.34;101185.47;10191197;29;20059;-85
2022/11/05 02:38:58;;;;;;;1.17;0.85;;;;;;;3.54;96.67;101184.16;10181733;29;20059;-84
2022/11/05 02:44:02;;;;;;;0.77;0.43;;;;;;;3.57;96.74;101197.28;10185926;29;20040;-84
2022/11/05 02:49:38;;;;;;;0.50;0.50;;;;;;;3.53;96.74;101193.66;10941927;23;20056;-85
2022/11/05 02:54:52;;;;;;;0.20;0.20;;;;;;;3.54;96.90;101191.94;10185226;29;20103;-84
2022/11/05 03:00:25;;;;;;;0.75;0.65;;;;;;;3.54;96.58;101189.34;10172315;29;20469;-84
2022/11/05 03:05:48;;;;;;;1.15;0.88;;;;;;;3.59;97.04;101198.25;10169290;29;20428;-84
2022/11/05 03:11:10;;;;;;;0.73;0.65;;;;;;;3.53;96.57;101190.19;10156925;29;20143;-85
2022/11/05 03:16:20;;;;;;;0.10;0.10;;;;;;;3.51;97.19;101197.88;10167613;29;20099;-83
2022/11/05 03:21:41;;;;;;;2.88;0.65;;;;;;;3.51;97.08;101199.53;10173502;29;20493;-85
2022/11/05 03:26:51;;;;;;;0.40;0.40;;;;;;;3.49;97.44;101198.59;10172919;29;20063;-84
2022/11/05 03:31:56;;;;;;;0.20;0.20;;;;;;;3.48;97.32;101192.53;10173850;29;20509;-84
2022/11/05 03:37:00;;;;;;;1.75;1.00;;;;;;;3.41;97.10;101197.28;10174784;29;20605;-84
2022/11/05 03:42:05;;;;;;;0.68;0.38;;;;;;;3.35;97.19;101197.88;10172053;29;20052;-84
2022/11/05 03:47:12;;;;;;;0.40;0.40;;;;;;;3.32;97.12;101201.19;10156645;29;20118;-85
2022/11/05 03:52:18;;;;;;;0.65;0.45;;;;;;;3.25;97.36;101204.25;10172993;29;20052;-86
2022/11/05 03:57:24;;;;;;;0.20;0.20;;;;;;;3.17;97.08;101202.97;10172295;29;20048;-85
2022/11/05 04:02:26;;;;;;;1.13;0.80;;;;;;;3.09;97.08;101202.53;10188104;29;20052;-85
2022/11/05 04:18:08;;;;;;;0.40;0.40;;;;;;;2.96;97.42;101219.09;10170379;29;20036;-84
2022/11/05 04:30:17;;;;;;;0.75;0.57;;;;;;;2.93;97.39;101224.09;10167444;29;20143;-84
2022/11/05 04:33:51;;;;;;;0.20;0.20;;;;;;;-100.18;97.16;101231.28;10160748;29;20048;-86
2022/11/05 04:38:52;;;;;;;0.10;0.10;;;;;;;2.71;97.25;101231.47;10184211;29;20060;-85
2022/11/05 04:43:54;;;;;;;0.60;0.57;;;;;;;2.64;97.09;101238.88;10170182;29;20099;-85
2022/11/05 04:48:55;;;;;;;0.28;0.25;;;;;;;2.57;97.29;101239.34;10169810;29;20044;-84
2022/11/05 04:53:57;;;;;;;0.30;0.30;;;;;;;2.53;97.03;101239.09;10171849;29;20048;-85
2022/11/05 04:58:58;;;;;;;0.30;0.28;;;;;;;2.50;96.99;101250.13;10172154;29;20081;-85
2022/11/05 05:04:00;;;;;;;1.02;0.85;;;;;;;2.55;97.24;101246.13;10172434;29;20600;-85
2022/11/05 05:09:01;;;;;;;0.35;0.35;;;;;;;2.58;97.24;101248.88;10169552;29;20048;-85
2022/11/05 05:14:03;;;;;;;0.52;0.52;;;;;;;2.70;97.07;101263.28;10150431;29;20040;-84
2022/11/05 05:19:04;;;;;;;0.30;0.30;;;;;;;2.67;97.06;101265.72;10157949;29;20056;-84
2022/11/05 05:24:11;;;;;;;0.55;0.55;;;;;;;2.62;96.94;101256.00;10165377;29;20048;-84
2022/11/05 05:29:14;;;;;;;1.10;0.75;;;;;;;2.60;97.21;101255.03;10164745;29;20474;-83
2022/11/05 05:34:15;;;;;;;1.33;1.23;;;;;;;2.65;97.24;101258.75;10180597;29;20131;-84
2022/11/05 05:39:17;;;;;;;1.73;1.15;;;;;;;2.75;97.24;101264.47;10173684;29;20047;-84
2022/11/05 05:44:18;;;;;;;0.57;0.43;;;;;;;2.73;97.19;101264.38;10174168;29;20044;-84
2022/11/05 05:49:20;;;;;;;2.50;1.17;;;;;;;2.77;97.54;101273.19;10173451;29;20135;-85
2022/11/05 05:54:22;;;;;;;0.55;0.55;;;;;;;2.78;97.35;101265.53;10173029;29;20477;-85
2022/11/05 05:59:31;;;;;;;0.60;0.60;;;;;;;2.86;97.37;101278.88;10165700;29;20055;-84
2022/11/05 06:04:32;;;;;;;1.85;0.88;;;;;;;2.89;97.48;101284.22;10179761;29;20048;-85
2022/11/05 06:09:34;;;;;;;1.10;0.90;;;;;;;2.87;97.54;101285.84;10179047;29;20048;-84
2022/11/05 06:14:35;;;;;;;1.27;0.65;;;;;;;2.95;97.78;101288.84;10178989;29;20040;-85
2022/11/05 06:19:36;;;;;;;0.40;0.40;;;;;;;2.98;97.59;101292.50;10174642;29;20108;-85
2022/11/05 06:24:38;;;;;;;0.50;0.50;;;;;;;2.97;97.82;101298.50;10172449;29;20537;-85
2022/11/05 06:29:39;;;;;;;0.70;0.70;;;;;;;3.03;97.77;101299.63;10168577;29;20044;-85
2022/11/05 06:34:41;;;;;;;1.25;0.88;;;;;;;2.97;97.90;101298.50;10170428;29;20093;-84
2022/11/05 06:39:42;;;;;;;1.42;1.05;;;;;;;3.01;97.75;101310.78;10175198;29;20493;-85
2022/11/05 06:44:44;;;;;;;0.85;0.70;;;;;;;3.14;97.70;101312.34;10169525;29;20055;-84
2022/11/05 06:49:45;;;;;;;1.10;0.75;;;;;;;3.16;97.94;101318.50;10168522;29;20064;-84
2022/11/05 06:54:47;;;;;;;1.40;1.00;;;;;;;3.23;97.89;101322.34;10173492;29;20044;-85
2022/11/05 06:59:48;;;;;;;1.48;1.23;;;;;;;3.37;97.97;101328.25;10172300;29;20099;-85
2022/11/05 07:04:50;;;;;;;0.68;0.68;;;;;;;3.49;97.92;101341.00;10172567;29;20080;-86
2022/11/05 07:09:51;;;;;;;0.88;0.80;;;;;;;3.60;98.27;101329.50;10152470;29;20047;-86
2022/11/05 07:14:53;;;;;;;0.90;0.65;;;;;;;3.74;98.24;101337.13;10165291;29;20044;-86
2022/11/05 07:19:54;;;;;;;0.98;0.57;;;;;;;3.89;98.50;101337.97;10165905;29;20051;-86
2022/11/05 07:24:58;;;;;;;0.73;0.52;;;;;;;4.25;98.30;101336.41;10162827;29;20099;-86
2022/11/05 07:29:59;;;;;;;0.45;0.40;;;;;;;6.37;98.61;101343.75;10163143;29;20052;-86
2022/11/05 07:35:03;;;;;;;1.55;1.02;;;;;;;10.62;98.39;101343.56;10167641;29;20046;-86
2022/11/05 07:40:06;;;;;;;9.85;2.53;;;;;;;11.82;92.81;101351.59;10150021;29;20059;-87
2022/11/05 07:45:08;;;;;;;2.05;1.25;;;;;;;9.46;87.59;101352.50;10167232;29;20059;-86
2022/11/05 07:50:10;;;;;;;2.72;1.00;;;;;;;7.06;85.81;101370.06;10163949;29;20659;-86
2022/11/05 07:55:12;;;;;;;1.33;1.08;;;;;;;7.07;86.85;101370.94;10165603;29;20579;-86
2022/11/05 08:00:20;;;;;;;9.65;1.42;;;;;;;12.07;85.18;101361.75;10163430;29;20056;-85
2022/11/05 08:05:21;;;;;;;2.72;1.50;;;;;;;13.24;78.50;101359.47;10158099;29;20513;-86
2022/11/05 08:10:23;;;;;;;2.22;1.23;;;;;;;13.35;74.90;101348.25;10147902;29;20055;-86
2022/11/05 08:15:25;;;;;;;3.33;1.63;;;;;;;12.68;72.31;101360.28;10164206;29;20518;-86
2022/11/05 08:20:27;;;;;;;3.22;1.95;;;;;;;9.37;73.64;101358.34;10164745;29;20558;-87
2022/11/05 08:25:28;;;;;;;3.75;1.35;;;;;;;8.09;76.53;101357.50;10164486;29;20075;-86
2022/11/05 08:30:31;;;;;;;2.30;1.67;;;;;;;7.89;78.98;101358.50;10142336;29;20095;-86
2022/11/05 08:35:33;;;;;;;1.70;0.75;;;;;;;7.74;80.79;101361.41;10164327;29;20090;-86
2022/11/05 08:40:36;;;;;;;0.98;0.55;;;;;;;7.97;81.98;101363.16;10163692;29;20113;-86
2022/11/05 08:45:38;;;;;;;3.40;1.60;;;;;;;8.24;82.97;101357.19;10163958;29;20103;-86
2022/11/05 08:50:40;;;;;;;2.42;1.17;;;;;;;8.35;83.22;101367.06;10156788;29;21054;-86
2022/11/05 08:55:42;;;;;;;1.95;1.00;;;;;;;8.62;83.56;101364.59;10151830;29;20078;-86
2022/11/05 09:00:47;;;;;;;1.17;0.88;;;;;;;9.03;83.69;101373.78;10162502;29;20048;-86
2022/11/05 09:05:48;;;;;;;1.48;1.10;;;;;;;9.06;83.54;101372.16;10158769;29;20052;-86
2022/11/05 09:10:50;;;;;;;2.42;1.25;;;;;;;9.24;83.38;101369.25;10163753;29;20151;-85
2022/11/05 09:15:51;;;;;;;2.22;1.20;;;;;;;9.42;83.09;101379.38;10164468;29;20514;-85
2022/11/05 09:20:53;;;;;;;2.30;1.25;;;;;;;9.64;82.92;101384.44;10166694;29;20092;-85
2022/11/05 09:25:54;;;;;;;;;;;;;;;9.83;82.34;101380.66;10167935;29;20056;-85
2022/11/05 09:30:56;;;;;;;1.02;0.80;;;;;;;10.01;82.01;101374.16;10148438;29;19974;-85
2022/11/05 09:36:02;;;;;;;2.08;1.02;;;;;;;10.11;81.35;101377.94;10153880;29;20403;-84
2022/11/05 09:41:50;;;;;;;3.40;1.30;;;;;;;10.28;80.77;101387.13;10162293;29;20099;-85
2022/11/05 09:46:58;;;;;;;2.25;0.90;;;;;;;10.21;80.07;101382.59;10171329;29;20044;-85
2022/11/05 09:52:01;;;;;;;3.08;1.13;;;;;;;10.14;80.10;101392.00;10155969;29;20048;-84
2022/11/05 09:57:06;;;;;;;2.67;1.42;;;;;;;10.15;80.20;101390.25;10171999;29;20592;-84
2022/11/05 10:02:19;;;;;;;2.85;1.13;;;;;;;10.22;79.64;101400.06;10173567;29;20135;-84
2022/11/05 10:07:25;;;;;;;1.50;1.00;;;;;;;10.35;79.86;101396.97;10175776;29;20481;-84
2022/11/05 10:12:38;;;;;;;3.28;0.98;;;;;;;10.51;79.73;101406.16;10159417;29;20064;-84
2022/11/05 10:17:43;;;;;;;1.25;0.75;;;;;;;10.44;79.47;101402.47;10159835;29;20044;-84
2022/11/05 10:22:45;;;;;;;1.15;0.90;;;;;;;10.64;79.26;101409.09;10167928;29;20063;-85
2022/11/05 10:27:53;;;;;;;2.28;1.00;;;;;;;10.59;78.95;101411.59;10166530;29;20048;-83
2022/11/05 10:32:58;;;;;;;2.13;0.93;;;;;;;10.65;78.92;101406.50;10166039;29;20088;-85
2022/11/05 10:38:01;;;;;;;2.00;1.13;;;;;;;10.65;78.80;101398.66;10183378;29;20512;-84
2022/11/05 10:43:04;;;;;;;2.42;1.10;;;;;;;10.90;78.72;101402.81;10183507;29;20044;-84
2022/11/05 10:48:38;;;;;;;1.38;1.02;;;;;;;10.93;78.17;101402.00;10175010;29;20052;-84
2022/11/05 10:53:53;;;;;;;1.20;0.75;;;;;;;11.12;77.90;101399.00;10164496;29;20131;-84
2022/11/05 10:59:03;;;;;;;4.22;1.10;;;;;;;11.10;77.72;101411.16;10183163;29;20513;-83
2022/11/05 11:04:23;;;;;;;1.52;1.00;;;;;;;11.12;77.37;101408.56;10174884;29;20060;-83
2022/11/05 11:09:29;;;;;;;1.63;0.70;;;;;;;11.15;77.10;101419.13;10175800;29;20044;-83
2022/11/05 11:14:32;;;;;;;3.20;1.33;;;;;;;11.37;77.55;101417.94;10193405;29;20048;-84
2022/11/05 11:19:35;;;;;;;2.75;1.13;;;;;;;11.56;77.34;101416.63;10182662;29;20346;-84
2022/11/05 11:24:39;;;;;;;1.77;1.00;;;;;;;11.61;76.80;101412.38;10180664;29;20039;-84
2022/11/05 11:29:44;;;;;;;2.10;0.88;;;;;;;11.45;76.35;101399.75;10180490;29;20054;-85
2022/11/05 11:34:53;;;;;;;1.40;1.10;;;;;;;11.27;76.37;101408.97;10189700;29;20080;-83
2022/11/05 11:40:12;;;;;;;5.68;1.38;;;;;;;11.45;76.55;101395.41;10171666;29;20044;-84
2022/11/05 11:45:36;;;;;;;1.43;1.00;;;;;;;11.49;76.75;101402.47;10174324;29;20052;-83
2022/11/05 11:50:41;;;;;;;1.45;0.93;;;;;;;11.58;76.40;101400.94;10188163;29;20127;-84
2022/11/05 11:55:54;;;;;;;4.20;0.95;;;;;;;11.54;76.35;101407.81;10179128;29;20214;-83
2022/11/05 12:01:15;;;;;;;2.05;1.00;;;;;;;11.87;76.47;101404.19;10173137;29;20044;-84
2022/11/05 12:06:35;;;;;;;2.63;1.20;;;;;;;11.77;76.02;101397.88;10161740;29;20085;-84
2022/11/05 12:12:01;;;;;;;1.55;1.08;;;;;;;12.01;76.05;101396.66;10171407;29;20116;-85
2022/11/05 12:17:14;;;;;;;1.88;0.93;;;;;;;12.14;75.53;101405.66;10183990;29;20044;-83
2022/11/05 12:22:47;;;;;;;1.83;1.10;;;;;;;11.75;75.03;101396.94;10180604;29;20052;-83
2022/11/05 12:28:25;;;;;;;2.08;1.20;;;;;;;11.84;75.39;101401.50;10164692;29;20048;-83
2022/11/05 12:33:39;;;;;;;3.65;1.52;;;;;;;11.74;75.43;101410.91;10170906;29;20044;-83
2022/11/05 12:38:56;;;;;;;1.50;0.93;;;;;;;11.82;75.51;101413.69;10169586;29;20068;-84
2022/11/05 12:44:38;;;;;;;2.45;0.90;;;;;;;11.58;75.61;101406.16;10156028;29;20539;-83
2022/11/05 12:49:53;;;;;;;3.13;1.55;;;;;;;11.68;76.03;101405.53;10150543;29;20052;-83
2022/11/05 12:55:07;;;;;;;1.42;0.90;;;;;;;11.46;75.91;101412.91;10172689;29;20047;-84
2022/11/05 13:00:17;;;;;;;5.90;1.00;;;;;;;11.34;76.04;101416.97;10160242;29;20073;-83
2022/11/05 13:05:44;;;;;;;1.35;0.95;;;;;;;11.11;76.14;101409.44;10161460;29;20054;-84
2022/11/05 13:11:13;;;;;;;2.58;1.30;;;;;;;11.04;76.37;101410.13;10167775;29;20044;-83
2022/11/05 13:16:32;;;;;;;1.63;0.98;;;;;;;11.11;76.44;101402.47;10159375;29;20494;-84
2022/11/05 13:21:37;;;;;;;1.47;0.97;;;;;;;11.19;76.55;101400.00;10182936;29;20048;-83
2022/11/05 13:26:44;;;;;;;2.30;1.00;;;;;;;11.12;76.44;101396.38;10179512;29;20055;-83
2022/11/05 13:31:56;;;;;;;2.67;1.10;;;;;;;11.10;76.32;101394.56;10177040;29;20044;-85
2022/11/05 13:43:05;;;;;;;1.23;0.80;;;;;;;10.87;76.75;101396.56;10191917;29;20131;-83
2022/11/05 13:48:29;;;;;;;1.48;1.08;;;;;;;10.86;77.05;101386.97;10191924;29;20048;-83
2022/11/05 13:54:01;;;;;;;2.60;1.30;;;;;;;10.86;77.42;101394.81;10187403;29;20096;-83
2022/11/05 13:59:41;;;;;;;2.95;1.05;;;;;;;10.86;77.60;101387.84;10177426;29;20099;-83
2022/11/05 14:05:00;;;;;;;2.15;1.25;;;;;;;10.78;77.88;101386.78;10184222;29;20048;-84
2022/11/05 14:10:34;;;;;;;0.80;0.80;;;;;;;10.74;78.04;101387.53;10174532;29;20071;-82
2022/11/05 14:15:35;;;;;;;3.67;1.30;;;;;;;10.79;78.30;101383.28;10183188;29;20053;-84
2022/11/05 14:20:42;;;;;;;1.70;0.98;;;;;;;10.75;78.51;101390.19;10197954;29;20044;-84
2022/11/05 14:25:51;;;;;;;1.42;0.95;;;;;;;10.75;78.51;101384.97;10191267;29;20048;-82
2022/11/05 14:30:52;;;;;;;1.75;1.10;;;;;;;10.71;78.47;101383.09;10188237;29;20086;-84
2022/11/05 14:36:19;;;;;;;2.67;1.15;;;;;;;10.61;78.56;101391.56;10181610;29;20044;-83
2022/11/05 14:41:21;;;;;;;1.75;1.10;;;;;;;10.55;78.65;101394.00;10194092;29;20115;-82
2022/11/05 14:46:23;;;;;;;0.50;0.50;;;;;;;10.54;78.73;101381.78;10184025;29;20581;-82
2022/11/05 14:51:29;;;;;;;2.53;0.98;;;;;;;10.51;79.02;101382.59;10174471;29;20044;-83
2022/11/05 14:56:56;;;;;;;2.58;1.17;;;;;;;10.43;79.01;101374.53;10185421;29;20048;-83
2022/11/05 15:02:13;;;;;;;2.10;1.20;;;;;;;10.34;79.09;101373.38;10184132;29;20044;-83
2022/11/05 15:07:41;;;;;;;1.63;0.93;;;;;;;10.25;79.52;101368.72;10191143;29;20676;-83
2022/11/05 15:13:02;;;;;;;3.45;1.55;;;;;;;10.17;79.47;101371.13;10194521;29;20071;-83
2022/11/05 15:18:20;;;;;;;3.20;1.50;;;;;;;10.05;79.79;101369.06;10193676;29;20056;-83
2022/11/05 15:23:25;;;;;;;2.95;1.38;;;;;;;9.95;79.75;101369.63;10187024;29;20040;-83
2022/11/05 15:28:36;;;;;;;1.92;1.10;;;;;;;9.89;79.74;101374.69;10169674;29;20127;-83
2022/11/05 15:33:42;;;;;;;1.40;0.90;;;;;;;9.83;79.83;101374.50;10186234;29;20052;-83
2022/11/05 15:38:44;;;;;;;2.25;1.08;;;;;;;9.76;79.54;101377.78;10184063;29;20048;-83
2022/11/05 15:44:22;;;;;;;3.60;1.42;;;;;;;9.67;79.71;101378.41;10188740;29;20095;-83
2022/11/05 15:49:24;;;;;;;1.67;0.68;;;;;;;9.58;80.04;101384.25;10154337;29;20050;-83
2022/11/05 15:54:26;;;;;;;1.23;0.90;;;;;;;9.47;80.03;101380.41;10204861;29;20087;-83
2022/11/05 15:59:33;;;;;;;2.97;1.13;;;;;;;9.45;80.07;101387.31;10194582;29;20421;-83
2022/11/05 16:04:35;;;;;;;1.67;0.98;;;;;;;9.38;80.20;101396.69;10178001;29;20067;-83
2022/11/05 16:09:40;;;;;;;4.97;1.35;;;;;;;9.29;80.49;101401.63;10193771;29;20055;-82
2022/11/05 16:14:42;;;;;;;3.47;1.55;;;;;;;9.13;80.71;101405.47;10193068;29;20056;-83
2022/11/05 16:19:45;;;;;;;1.95;1.02;;;;;;;9.15;80.72;101407.28;10179554;29;20048;-84
2022/11/05 16:24:47;;;;;;;2.45;1.27;;;;;;;9.03;81.00;101402.53;10192554;29;20080;-84
2022/11/05 16:29:54;;;;;;;1.15;0.93;;;;;;;8.98;81.22;101404.13;10176307;29;20059;-83
2022/11/05 16:35:01;;;;;;;2.45;1.10;;;;;;;8.92;81.31;101414.38;10178626;29;20058;-83
2022/11/05 16:40:18;;;;;;;2.63;1.48;;;;;;;8.89;81.49;101416.88;10204871;29;20099;-83
2022/11/05 16:45:23;;;;;;;4.63;2.00;;;;;;;8.85;81.71;101407.16;10186228;29;20075;-83
2022/11/05 16:50:30;;;;;;;4.47;1.90;;;;;;;8.80;81.96;101406.13;10207225;29;20109;-83
2022/11/05 16:55:33;;;;;;;5.07;1.55;;;;;;;8.81;82.10;101413.09;10174602;29;20055;-83
2022/11/05 17:00:35;;;;;;;1.55;1.30;;;;;;;8.78;81.98;101418.22;10194848;29;20044;-83
2022/11/05 17:05:36;;;;;;;5.05;1.77;;;;;;;8.74;82.26;101411.13;10197824;29;20079;-83
2022/11/05 17:10:38;;;;;;;3.85;2.00;;;;;;;8.69;82.52;101402.22;10193671;29;20545;-83
2022/11/05 17:15:42;;;;;;;1.75;1.05;;;;;;;8.66;82.70;101409.13;10195363;29;20048;-83
2022/11/05 17:20:52;;;;;;;3.63;1.42;;;;;;;8.67;82.99;101412.63;10193578;29;20119;-80
2022/11/05 17:26:00;;;;;;;4.55;1.52;;;;;;;8.65;82.74;101404.75;10186577;29;20403;-82
2022/11/05 17:31:04;;;;;;;2.40;1.38;;;;;;;8.65;82.83;101396.91;10178162;29;20055;-83
2022/11/05 17:36:08;;;;;;;4.45;2.10;;;;;;;8.64;82.64;101389.91;10186994;29;20048;-83
2022/11/05 17:41:20;;;;;;;2.55;1.50;;;;;;;8.64;82.49;101382.06;10187315;29;20081;-84
2022/11/05 17:46:23;;;;;;;3.25;1.55;;;;;;;8.65;82.36;101378.63;10183331;29;20108;-83
2022/11/05 17:51:24;;;;;;;3.45;1.17;;;;;;;8.59;82.28;101383.66;10178072;29;20087;-83
2022/11/05 17:56:26;;;;;;;2.75;1.48;;;;;;;8.57;82.58;101393.16;10202838;29;20123;-83
2022/11/05 18:01:40;;;;;;;2.00;1.40;;;;;;;8.53;82.47;101395.56;10201554;29;20051;-84
2022/11/05 18:06:41;;;;;;;2.65;1.35;;;;;;;8.52;82.58;101394.69;10203736;29;20055;-83
2022/11/05 18:11:43;;;;;;;4.90;1.75;;;;;;;8.54;82.58;101392.16;10203925;29;20128;-83
2022/11/05 18:16:44;;;;;;;2.75;1.30;;;;;;;8.49;82.31;101394.59;10202539;29;20051;-83
2022/11/05 18:21:46;;;;;;;2.47;1.20;;;;;;;8.48;82.43;101387.59;10201280;29;20068;-84
2022/11/05 18:26:48;;;;;;;2.72;1.33;;;;;;;8.44;82.20;101386.59;10197026;29;20044;-82
2022/11/05 18:31:49;;;;;;;4.10;1.35;;;;;;;8.54;81.80;101382.63;10182474;29;20116;-83
2022/11/05 18:36:51;;;;;;;2.83;1.60;;;;;;;8.53;81.75;101383.44;10192075;29;20308;-83
2022/11/05 18:41:58;;;;;;;2.75;1.45;;;;;;;8.52;81.72;101393.81;10201392;29;20048;-83
2022/11/05 18:46:59;;;;;;;2.22;1.27;;;;;;;8.47;81.63;101388.44;10202855;29;20528;-82
2022/11/05 18:52:01;;;;;;;1.58;0.82;;;;;;;8.48;81.50;101385.88;10202785;29;20044;-83
2022/11/05 18:57:03;;;;;;;1.27;0.93;;;;;;;8.45;81.55;101377.03;10202129;29;20518;-83
2022/11/05 19:02:06;;;;;;;1.77;0.90;;;;;;;8.46;81.49;101378.84;10201369;29;20065;-83
2022/11/05 19:07:08;;;;;;;2.03;1.13;;;;;;;8.51;81.33;101368.53;10201659;29;20036;-83
2022/11/05 19:12:09;;;;;;;2.17;1.48;;;;;;;8.51;81.08;101382.47;10185980;29;20068;-83
2022/11/05 19:17:11;;;;;;;2.05;1.30;;;;;;;8.48;80.80;101377.16;10202956;29;20107;-84
2022/11/05 19:22:13;;;;;;;1.63;1.10;;;;;;;8.44;80.90;101365.72;10204019;29;20143;-82
2022/11/05 19:27:14;;;;;;;2.53;1.38;;;;;;;8.47;80.75;101355.41;10199403;29;20076;-83
2022/11/05 19:32:16;;;;;;;1.98;1.02;;;;;;;8.48;80.70;101362.41;10200947;29;20068;-84
2022/11/05 19:37:18;;;;;;;1.83;1.10;;;;;;;8.48;80.54;101358.88;10202035;29;20032;-84
2022/11/05 19:42:19;;;;;;;1.88;1.02;;;;;;;8.48;80.46;101361.50;10201133;29;20044;-84
2022/11/05 19:47:20;;;;;;;3.60;1.42;;;;;;;8.44;80.26;101363.13;10200957;29;20073;-84
2022/11/05 19:52:22;;;;;;;1.92;1.15;;;;;;;8.38;80.31;101349.81;10200051;29;20068;-82
2022/11/05 19:57:23;;;;;;;1.90;1.10;;;;;;;8.34;80.44;101354.88;10193936;29;20135;-83
2022/11/05 20:02:25;;;;;;;3.75;1.58;;;;;;;8.33;80.29;101356.59;10201335;29;20054;-84
2022/11/05 20:07:27;;;;;;;2.70;1.48;;;;;;;8.29;80.39;101342.56;10198545;29;20036;-83
2022/11/05 20:12:28;;;;;;;3.42;1.95;;;;;;;8.26;80.37;101339.84;10190570;29;20119;-84
2022/11/05 20:17:29;;;;;;;3.25;1.75;;;;;;;8.31;80.47;101347.81;10198890;29;20040;-82
2022/11/05 20:22:31;;;;;;;1.63;1.20;;;;;;;8.26;80.45;101347.66;10188898;29;20044;-83
2022/11/05 20:27:32;;;;;;;2.53;1.30;;;;;;;8.25;80.70;101358.94;10196131;29;20138;-83
2022/11/05 20:32:34;;;;;;;4.45;1.83;;;;;;;8.25;80.68;101363.28;10197591;29;20040;-83
2022/11/05 20:37:35;;;;;;;2.17;1.15;;;;;;;8.23;80.65;101358.00;10196816;29;20047;-84
2022/11/05 20:42:37;;;;;;;1.38;1.00;;;;;;;8.27;80.68;101352.06;10180276;29;20032;-82
2022/11/05 20:47:38;;;;;;;4.65;1.77;;;;;;;8.31;80.57;101353.91;10186842;29;20075;-84
2022/11/05 20:52:40;;;;;;;4.30;1.27;;;;;;;8.30;80.53;101349.56;10195297;29;20040;-83
2022/11/05 20:57:41;;;;;;;2.53;1.20;;;;;;;8.32;80.82;101357.44;10176401;29;20044;-83
2022/11/05 21:02:43;;;;;;;4.13;1.55;;;;;;;8.35;80.75;101361.84;10175580;29;20076;-83
2022/11/05 21:07:45;;;;;;;2.03;1.00;;;;;;;8.38;80.81;101356.78;10197350;29;20076;-83
2022/11/05 21:12:46;;;;;;;1.67;0.82;;;;;;;8.37;80.83;101347.16;10197431;29;20048;-84
2022/11/05 21:17:49;;;;;;;2.17;1.23;;;;;;;8.39;80.85;101350.69;10197407;29;20084;-84
2022/11/05 21:22:50;;;;;;;6.85;2.42;;;;;;;8.38;80.97;101348.94;10197201;29;20068;-83
2022/11/05 21:27:52;;;;;;;2.83;1.17;;;;;;;8.42;80.99;101341.28;10196542;29;20044;-84
2022/11/05 21:32:53;;;;;;;1.85;1.02;;;;;;;8.46;81.14;101344.91;10197117;29;20101;-84
2022/11/05 21:37:55;;;;;;;2.63;1.55;;;;;;;8.47;81.27;101344.06;10196268;29;20099;-83
2022/11/05 21:42:56;;;;;;;1.30;0.82;;;;;;;8.47;81.47;101333.63;10197850;29;20040;-84
2022/11/05 21:47:58;;;;;;;2.97;1.35;;;;;;;8.48;81.28;101330.16;10196617;29;20036;-83
2022/11/05 22:03:42;;;;;;;;;;;;;;;8.52;81.72;101313.78;10197307;29;20048;-84
2022/11/05 22:08:44;;;;;;;3.30;1.63;;;;;;;8.56;82.02;101318.28;10189332;29;19930;-83
2022/11/05 22:13:45;;;;;;;2.47;1.25;;;;;;;8.56;82.09;101306.97;10189876;29;20040;-83
2022/11/05 22:18:47;;;;;;;1.73;0.98;;;;;;;8.55;82.09;101302.56;10188000;29;20106;-84
2022/11/05 22:23:48;;;;;;;3.35;1.63;;;;;;;8.54;82.26;101301.69;10189869;29;20044;-83
2022/11/05 22:28:52;;;;;;;2.50;1.25;;;;;;;8.59;82.39;101292.28;10206275;29;20050;-84
2022/11/05 22:33:53;;;;;;;2.50;1.20;;;;;;;8.55;82.61;101272.13;10199332;29;20048;-83
2022/11/05 22:38:55;;;;;;;6.63;1.60;;;;;;;8.60;82.64;101277.50;10202818;29;20036;-83
2022/11/05 22:43:56;;;;;;;3.53;1.45;;;;;;;8.60;82.50;101275.78;10202196;29;20048;-85
2022/11/05 22:48:59;;;;;;;2.25;1.17;;;;;;;8.57;82.73;101278.31;10201408;29;20039;-83
2022/11/05 22:54:01;;;;;;;1.05;0.85;;;;;;;8.56;82.92;101275.66;10202549;29;20127;-83
2022/11/05 22:59:03;;;;;;;2.70;1.60;;;;;;;8.52;83.28;101277.25;10183047;29;20123;-84
2022/11/05 23:04:05;;;;;;;1.13;0.98;;;;;;;8.51;83.21;101267.63;10163745;29;20036;-84
2022/11/05 23:14:48;;;;;;;2.25;1.38;;;;;;;8.56;83.35;101263.47;10179587;29;20096;-83
2022/11/05 23:25:12;;;;;;;2.35;1.33;;;;;;;8.61;83.38;101254.06;10176055;29;20076;-83
2022/11/05 23:30:17;;;;;;;2.08;1.25;;;;;;;8.56;83.53;101255.63;10172088;29;20111;-83
2022/11/05 23:38:32;;;;;;;2.47;1.20;;;;;;;8.54;83.61;101257.31;10177570;29;20044;-82
2022/11/05 23:48:14;;;;;;;3.40;1.58;;;;;;;8.54;83.76;101241.66;10173914;29;20040;-82
2022/11/05 23:51:26;;;;;;;1.17;0.98;;;;;;;8.55;83.87;101230.38;10171471;29;20048;-83
2022/11/05 23:56:29;;;;;;;4.57;1.52;;;;;;;8.56;83.57;101219.09;10177056;29;20048;-83
